Rechercher aéroport 
image banner adimage banner adimage banner ad
image banner ad

PS12 - Grover

Situé à Weatherly, United States

ICAO - PS12, IATA -

Données fournies par Airmate  

Information générale

Coordonnées: N40°55'0" W75°51'59"
Élévation : 1223 feet MSL.
Variation magnétique : -11° East
Voir autres Aéroports à Pennsylvania

Données opérationnelles

Special qualification required
Heure actuelle UTC:
Heure actuelle locale:
Météo à : KHZL - Hazleton Rgnl ( 13 km )
METAR: KHZL 152215Z AUTO 32005KT 10SM BKN060 BKN100 20/11 A2986 RMK AO2
Voir NOTAMs / SUP AIP / TFR affectant cet aéroport [VIEW]
Fréquences de communication: [VIEW]

Pistes:

Identifiant RWYQFULongueur (ft)Largeur (ft)SurfaceLDA (ft)
082360100GRASS
262360100GRASS

Coordonnées de l'aéroport

Adresse: Weatherly United States

Vue satellite de PS12